Time;durP1;ratioP1;P1;durP2;ratioP2;P2;SDS_P1;SDS_P2;PMS_P1;PMS_P2;Temp;Humidity;BMP_temperature;BMP_pressure;BME280_temperature;BME280_humidity;BME280_pressure;Samples;Min_cycle;Max_cycle;Signal;HPM_P1;HPM_P2
2023/12/11 00:05:04;;;;;;;16.90;5.70;;;;;;;2.00;100.00;98305.77;273312;1252;23884;-90
2023/12/11 00:11:08;;;;;;;13.70;5.50;;;;;;;2.08;100.00;98301.41;270847;1271;22632;-89
2023/12/11 00:17:14;;;;;;;16.60;6.20;;;;;;;2.09;100.00;98300.41;271148;1271;23471;-90
2023/12/11 00:23:16;;;;;;;18.20;6.10;;;;;;;2.07;100.00;98296.66;271137;1268;22593;-89
2023/12/11 00:29:18;;;;;;;15.00;6.90;;;;;;;2.06;100.00;98294.06;272162;1270;23180;-89
2023/12/11 00:35:19;;;;;;;16.30;6.80;;;;;;;1.99;100.00;98293.11;271622;1270;22705;-89
2023/12/11 00:41:22;;;;;;;24.00;7.30;;;;;;;1.97;100.00;98287.94;271547;1269;22429;-90
2023/12/11 00:47:24;;;;;;;15.00;6.60;;;;;;;1.93;100.00;98274.08;273568;1271;22427;-90
2023/12/11 00:53:26;;;;;;;19.50;6.30;;;;;;;1.89;100.00;98256.29;273442;1270;22387;-90
2023/12/11 00:59:28;;;;;;;19.10;6.60;;;;;;;1.90;100.00;98246.02;272862;1273;22268;-90
2023/12/11 01:05:30;;;;;;;17.30;6.00;;;;;;;1.87;100.00;98231.73;271385;1266;23881;-89
2023/12/11 01:11:32;;;;;;;17.30;6.20;;;;;;;1.75;100.00;98237.85;272248;1270;22322;-90
2023/12/11 01:17:34;;;;;;;15.00;5.50;;;;;;;1.64;100.00;98238.80;273489;1270;22285;-89
2023/12/11 01:23:37;;;;;;;9.60;4.50;;;;;;;1.66;100.00;98233.20;272598;1270;22552;-88
2023/12/11 01:29:40;;;;;;;11.80;3.40;;;;;;;1.74;100.00;98228.02;272859;1269;22224;-90
2023/12/11 01:35:42;;;;;;;17.30;3.90;;;;;;;1.92;100.00;98220.36;273599;1270;22250;-89
2023/12/11 01:41:44;;;;;;;11.40;3.90;;;;;;;2.04;100.00;98210.17;272484;1261;22598;-90
2023/12/11 01:47:46;;;;;;;8.40;3.10;;;;;;;2.08;100.00;98200.89;271706;1269;22417;-90
2023/12/11 01:53:49;;;;;;;8.00;2.70;;;;;;;2.13;100.00;98196.96;271952;1269;22204;-88
2023/12/11 01:59:51;;;;;;;11.00;3.80;;;;;;;2.14;100.00;98191.27;273307;1269;22377;-90
2023/12/11 02:05:53;;;;;;;11.70;3.70;;;;;;;2.22;100.00;98175.78;273513;1270;22213;-89
2023/12/11 02:11:58;;;;;;;11.80;3.50;;;;;;;2.34;100.00;98163.89;270642;1267;22327;-89
2023/12/11 02:18:00;;;;;;;9.80;3.70;;;;;;;2.38;100.00;98160.30;272980;1270;22807;-89
2023/12/11 02:24:12;;;;;;;13.10;3.20;;;;;;;2.38;100.00;98154.66;273106;1270;22371;-90
2023/12/11 02:36:27;;;;;;;8.40;3.30;;;;;;;2.32;100.00;98139.91;271690;1272;22204;-89
2023/12/11 02:42:29;;;;;;;9.00;2.40;;;;;;;2.41;100.00;98127.68;272469;1273;22230;-88
2023/12/11 02:48:31;;;;;;;6.80;3.10;;;;;;;2.39;100.00;98116.42;271162;1276;207726;-89
2023/12/11 02:54:33;;;;;;;11.20;3.90;;;;;;;2.24;100.00;98107.96;272981;1272;22901;-90
2023/12/11 03:00:36;;;;;;;8.00;3.10;;;;;;;2.10;100.00;98109.34;272926;1275;22253;-89
2023/12/11 03:06:38;;;;;;;11.10;2.90;;;;;;;1.97;100.00;98099.54;272944;1272;22240;-90
2023/12/11 03:12:40;;;;;;;9.20;3.30;;;;;;;1.88;100.00;98095.07;272888;1272;22368;-89
2023/12/11 03:18:43;;;;;;;8.60;3.60;;;;;;;1.82;100.00;98099.60;272865;1264;22389;-90
2023/12/11 03:24:46;;;;;;;18.50;6.30;;;;;;;1.69;100.00;98096.20;272868;1271;22509;-90
2023/12/11 03:30:48;;;;;;;20.90;5.60;;;;;;;1.55;100.00;98090.04;272796;1273;22400;-91
2023/12/11 03:36:50;;;;;;;16.00;4.90;;;;;;;1.46;100.00;98094.24;273020;1272;23065;-90
2023/12/11 03:42:52;;;;;;;15.50;5.50;;;;;;;1.43;100.00;98083.73;272796;1272;22415;-90
2023/12/11 03:48:54;;;;;;;12.30;5.40;;;;;;;1.41;100.00;98075.96;272128;1273;22580;-91
2023/12/11 03:54:56;;;;;;;23.80;9.40;;;;;;;1.35;100.00;98069.77;271969;1274;22591;-90
2023/12/11 04:00:58;;;;;;;17.90;7.10;;;;;;;1.25;100.00;98059.72;271727;1272;22650;-90
2023/12/11 04:07:02;;;;;;;23.20;9.80;;;;;;;1.23;100.00;98047.71;271069;1277;22318;-90
2023/12/11 04:13:04;;;;;;;20.60;8.60;;;;;;;1.21;100.00;98031.09;272049;1272;22582;-89
2023/12/11 04:19:06;;;;;;;16.10;7.00;;;;;;;1.18;100.00;98028.94;271570;1272;22577;-89
2023/12/11 04:25:08;;;;;;;15.00;6.10;;;;;;;1.14;100.00;98014.02;270829;1275;22216;-89
2023/12/11 04:31:10;;;;;;;17.50;8.40;;;;;;;1.11;100.00;98008.36;270251;1276;22691;-89
2023/12/11 04:37:13;;;;;;;14.00;5.20;;;;;;;1.10;100.00;97995.30;272188;1273;23502;-89
2023/12/11 04:43:15;;;;;;;10.00;4.00;;;;;;;1.03;100.00;97994.85;272949;1272;22484;-90
2023/12/11 04:49:17;;;;;;;16.10;6.10;;;;;;;0.95;100.00;97976.75;273008;1278;23105;-89
2023/12/11 04:55:19;;;;;;;22.40;7.20;;;;;;;0.96;100.00;97941.34;273003;1276;22289;-92
2023/12/11 05:01:25;;;;;;;21.20;10.00;;;;;;;0.97;100.00;97925.00;271726;1272;22283;-89
2023/12/11 05:07:27;;;;;;;21.40;9.90;;;;;;;0.97;100.00;97909.34;272776;1278;22256;-89
2023/12/11 05:13:30;;;;;;;15.80;5.50;;;;;;;0.92;100.00;97907.98;272766;1272;22636;-90
2023/12/11 05:19:32;;;;;;;13.30;6.30;;;;;;;0.87;100.00;97916.60;271654;1273;22226;-88
2023/12/11 05:25:34;;;;;;;19.70;7.70;;;;;;;0.79;100.00;97929.95;270345;1273;24345;-89
2023/12/11 05:31:36;;;;;;;19.40;8.80;;;;;;;0.78;100.00;97954.33;272358;1273;22448;-90
2023/12/11 05:37:38;;;;;;;21.10;9.10;;;;;;;0.84;100.00;97951.59;273030;1274;22477;-89
2023/12/11 05:43:41;;;;;;;21.70;8.70;;;;;;;0.90;100.00;97953.65;272980;1273;22214;-89
2023/12/11 05:49:43;;;;;;;25.00;10.80;;;;;;;0.97;100.00;97964.31;272350;1272;22600;-89
2023/12/11 05:55:45;;;;;;;34.60;12.80;;;;;;;1.02;100.00;97956.77;272410;1260;24043;-88
2023/12/11 06:01:48;;;;;;;25.50;11.90;;;;;;;1.05;100.00;97946.55;271284;1272;23524;-89
2023/12/11 06:07:50;;;;;;;29.10;13.50;;;;;;;0.99;100.00;97950.60;271401;1273;22296;-90
2023/12/11 06:13:52;;;;;;;26.00;10.90;;;;;;;0.93;100.00;97941.49;272910;1273;22559;-89
2023/12/11 06:19:54;;;;;;;19.60;8.40;;;;;;;1.03;100.00;97924.40;272998;1273;22299;-89
2023/12/11 06:25:56;;;;;;;30.20;13.60;;;;;;;1.34;100.00;97916.65;272855;1271;22406;-89
2023/12/11 06:31:59;;;;;;;23.80;10.80;;;;;;;1.38;100.00;97929.87;273059;1273;22294;-89
2023/12/11 06:38:01;;;;;;;24.20;9.60;;;;;;;1.34;100.00;97945.39;271627;1272;22681;-90
2023/12/11 06:44:04;;;;;;;19.00;8.60;;;;;;;1.20;100.00;97956.58;270128;1272;22394;-90
2023/12/11 06:50:07;;;;;;;29.40;8.50;;;;;;;1.07;100.00;97959.14;270669;1267;22623;-91
2023/12/11 06:56:17;;;;;;;17.00;7.80;;;;;;;1.10;100.00;97944.48;270488;1273;22563;-90
2023/12/11 07:02:19;;;;;;;8.20;3.80;;;;;;;1.29;100.00;97937.15;270512;1272;22574;-91
2023/12/11 07:08:28;;;;;;;12.20;4.80;;;;;;;1.79;100.00;97925.41;270201;1272;23545;-92
2023/12/11 07:14:44;;;;;;;17.10;7.60;;;;;;;2.25;100.00;97923.52;270822;1272;22235;-91
2023/12/11 07:20:51;;;;;;;40.70;16.90;;;;;;;2.53;100.00;97931.13;270701;1272;22193;-91
2023/12/11 07:26:53;;;;;;;13.50;4.40;;;;;;;2.62;100.00;97953.59;271911;1270;22600;-91
2023/12/11 07:33:00;;;;;;;9.20;3.90;;;;;;;2.55;100.00;97963.66;272232;1273;22481;-92
2023/12/11 07:39:03;;;;;;;13.20;4.70;;;;;;;2.52;100.00;97961.58;271714;1273;22319;-91
2023/12/11 07:45:06;;;;;;;4.90;2.60;;;;;;;2.49;100.00;97953.86;271335;1272;22555;-92
2023/12/11 07:51:19;;;;;;;4.70;1.90;;;;;;;2.58;100.00;97944.27;270577;1272;22580;-91
2023/12/11 07:57:26;;;;;;;5.00;2.30;;;;;;;2.90;100.00;97939.69;272580;1272;22437;-93
2023/12/11 08:03:31;;;;;;;5.80;2.30;;;;;;;3.27;100.00;97941.85;270902;1272;22560;-94
2023/12/11 08:09:52;;;;;;;11.50;2.60;;;;;;;3.35;100.00;97944.75;270369;1272;22489;-92
